Time;durP1;ratioP1;P1;durP2;ratioP2;P2;SDS_P1;SDS_P2;PMS_P1;PMS_P2;Temp;Humidity;BMP_temperature;BMP_pressure;BME280_temperature;BME280_humidity;BME280_pressure;Samples;Min_cycle;Max_cycle;Signal;HPM_P1;HPM_P2
2023/07/17 00:00:00;;;;;;;4.45;2.70;;;;;;;;;;5137131;27;20046;-89
2023/07/17 00:02:25;;;;;;;3.33;2.20;;;;;;;;;;5115191;27;20483;-90
2023/07/17 00:04:51;;;;;;;3.47;3.17;;;;;;;;;;5135195;27;20422;-89
2023/07/17 00:07:16;;;;;;;3.17;2.65;;;;;;;;;;5134273;27;20046;-89
2023/07/17 00:09:43;;;;;;;2.95;2.38;;;;;;;;;;5144915;27;20062;-89
2023/07/17 00:12:09;;;;;;;4.03;2.72;;;;;;;;;;5131203;27;20030;-89
2023/07/17 00:14:35;;;;;;;3.45;2.55;;;;;;;;;;5116663;27;20076;-88
2023/07/17 00:17:01;;;;;;;3.13;2.38;;;;;;;;;;5116977;27;20026;-88
2023/07/17 00:19:26;;;;;;;3.67;2.17;;;;;;;;;;5114978;27;20065;-89
2023/07/17 00:21:52;;;;;;;4.15;2.58;;;;;;;;;;5112471;27;20352;-89
2023/07/17 00:24:17;;;;;;;3.58;2.80;;;;;;;;;;5133829;27;20027;-91
2023/07/17 00:26:43;;;;;;;4.60;3.10;;;;;;;;;;5114941;27;20027;-89
2023/07/17 00:29:28;;;;;;;2.83;2.35;;;;;;;;;;5113236;27;20069;-90
2023/07/17 00:31:54;;;;;;;2.53;2.08;;;;;;;;;;5110210;27;20088;-87
2023/07/17 00:34:20;;;;;;;3.33;2.80;;;;;;;;;;5132842;27;20528;-88
2023/07/17 00:36:46;;;;;;;4.95;3.58;;;;;;;;;;5131955;27;20074;-89
2023/07/17 00:39:14;;;;;;;3.72;2.83;;;;;;;;;;5131457;27;20122;-89
2023/07/17 00:41:40;;;;;;;3.45;2.97;;;;;;;;;;5115760;27;20089;-89
2023/07/17 00:44:05;;;;;;;5.63;3.88;;;;;;;;;;5133205;27;20063;-87
2023/07/17 00:46:33;;;;;;;4.13;3.33;;;;;;;;;;5135224;27;20044;-89
2023/07/17 00:49:00;;;;;;;3.30;2.70;;;;;;;;;;5117337;27;20378;-87
2023/07/17 00:51:26;;;;;;;4.57;3.08;;;;;;;;;;5114877;27;20031;-89
2023/07/17 00:53:52;;;;;;;4.35;2.75;;;;;;;;;;5134559;27;20027;-89
2023/07/17 00:56:18;;;;;;;5.10;3.67;;;;;;;;;;5131926;27;20030;-89
2023/07/17 00:58:44;;;;;;;5.53;3.28;;;;;;;;;;5133251;27;20031;-90
2023/07/17 01:01:12;;;;;;;4.95;3.35;;;;;;;;;;5112998;27;20500;-87
2023/07/17 01:03:38;;;;;;;4.28;2.97;;;;;;;;;;5114948;28;20031;-88
2023/07/17 01:06:04;;;;;;;4.35;3.67;;;;;;;;;;5134769;27;20033;-88
2023/07/17 01:08:31;;;;;;;4.25;3.28;;;;;;;;;;5133807;27;20051;-88
2023/07/17 01:10:56;;;;;;;4.30;3.03;;;;;;;;;;5133216;27;20037;-88
2023/07/17 01:13:22;;;;;;;4.15;3.30;;;;;;;;;;5116640;28;20113;-90
2023/07/17 01:15:47;;;;;;;4.25;3.17;;;;;;;;;;5113711;27;20034;-87
2023/07/17 01:18:16;;;;;;;3.13;2.35;;;;;;;;;;5116409;28;20027;-89
2023/07/17 01:20:41;;;;;;;4.55;3.05;;;;;;;;;;5113823;28;20079;-89
2023/07/17 01:23:07;;;;;;;5.22;3.38;;;;;;;;;;5134722;28;20071;-88
2023/07/17 01:25:33;;;;;;;5.03;3.90;;;;;;;;;;5133815;28;20106;-87
2023/07/17 01:28:06;;;;;;;3.78;2.40;;;;;;;;;;5115544;28;20027;-93
2023/07/17 01:30:31;;;;;;;4.70;3.22;;;;;;;;;;5114622;28;20031;-91
2023/07/17 01:32:57;;;;;;;4.68;3.08;;;;;;;;;;5134230;27;20060;-91
2023/07/17 01:35:22;;;;;;;5.57;3.72;;;;;;;;;;5120452;27;20364;-90
2023/07/17 01:37:51;;;;;;;3.83;2.63;;;;;;;;;;5120106;27;20424;-90
2023/07/17 01:40:17;;;;;;;3.67;3.28;;;;;;;;;;5115458;27;20031;-90
2023/07/17 01:42:43;;;;;;;3.53;2.60;;;;;;;;;;5137337;27;20054;-88
2023/07/17 01:45:08;;;;;;;4.22;2.67;;;;;;;;;;5118333;27;20479;-90
2023/07/17 01:47:34;;;;;;;4.68;3.22;;;;;;;;;;5119888;27;20027;-91
2023/07/17 01:50:01;;;;;;;4.28;3.33;;;;;;;;;;5137014;27;20478;-91
2023/07/17 01:52:26;;;;;;;3.70;2.83;;;;;;;;;;5138602;27;20055;-90
2023/07/17 01:54:54;;;;;;;3.55;2.50;;;;;;;;;;5121544;27;20042;-88
2023/07/17 01:57:22;;;;;;;4.00;2.85;;;;;;;;;;5133511;27;20459;-88
2023/07/17 01:59:48;;;;;;;5.22;3.63;;;;;;;;;;5114856;27;20386;-90
2023/07/17 02:02:14;;;;;;;5.45;3.45;;;;;;;;;;5118370;27;20019;-90
2023/07/17 02:04:39;;;;;;;4.30;3.15;;;;;;;;;;5118102;27;20126;-90
2023/07/17 02:07:05;;;;;;;3.20;2.65;;;;;;;;;;5118519;27;20027;-89
2023/07/17 02:09:30;;;;;;;9.60;4.43;;;;;;;;;;5118403;27;20031;-89
2023/07/17 02:11:56;;;;;;;4.28;3.33;;;;;;;;;;5116791;27;20023;-90
2023/07/17 02:14:21;;;;;;;4.57;3.15;;;;;;;;;;5139343;27;20390;-89
2023/07/17 02:16:47;;;;;;;5.78;3.60;;;;;;;;;;5119727;27;20076;-89
2023/07/17 02:19:19;;;;;;;4.88;3.60;;;;;;;;;;5118536;27;20147;-88
2023/07/17 02:21:47;;;;;;;4.63;3.17;;;;;;;;;;5120832;27;20035;-90
2023/07/17 02:24:19;;;;;;;4.88;3.50;;;;;;;;;;5118141;27;20059;-88
2023/07/17 02:26:44;;;;;;;4.70;3.70;;;;;;;;;;5137895;27;20019;-89
2023/07/17 02:29:10;;;;;;;3.90;3.17;;;;;;;;;;5136811;27;20034;-89
2023/07/17 02:31:39;;;;;;;3.55;2.58;;;;;;;;;;5135941;27;20019;-89
2023/07/17 02:34:07;;;;;;;9.35;3.58;;;;;;;;;;5117591;27;20386;-88
2023/07/17 02:36:32;;;;;;;4.82;3.70;;;;;;;;;;5132795;27;20031;-89
2023/07/17 02:38:58;;;;;;;4.57;3.15;;;;;;;;;;5116952;27;20079;-88
2023/07/17 02:41:24;;;;;;;3.50;2.95;;;;;;;;;;5117957;27;20064;-89
2023/07/17 02:43:51;;;;;;;2.97;2.10;;;;;;;;;;5116456;27;20073;-89
2023/07/17 02:46:16;;;;;;;4.13;3.05;;;;;;;;;;5114656;27;20493;-87
2023/07/17 02:48:42;;;;;;;5.00;3.35;;;;;;;;;;5117270;27;20016;-87
2023/07/17 02:51:10;;;;;;;4.15;3.22;;;;;;;;;;5119329;27;20027;-90
2023/07/17 02:53:36;;;;;;;5.53;3.33;;;;;;;;;;5113222;27;20396;-88
2023/07/17 02:56:02;;;;;;;4.00;3.60;;;;;;;;;;5116968;27;20027;-88
2023/07/17 02:58:28;;;;;;;3.78;2.90;;;;;;;;;;5118409;27;20091;-89
2023/07/17 03:00:54;;;;;;;3.80;3.08;;;;;;;;;;5118065;27;20549;-89
2023/07/17 03:03:21;;;;;;;3.00;2.58;;;;;;;;;;5119758;27;20039;-90
2023/07/17 03:05:46;;;;;;;3.75;2.83;;;;;;;;;;5117274;27;20510;-89
2023/07/17 03:08:12;;;;;;;3.55;2.72;;;;;;;;;;5138689;27;20057;-90
2023/07/17 03:10:37;;;;;;;3.35;2.88;;;;;;;;;;5117180;27;20031;-88
2023/07/17 03:13:03;;;;;;;4.68;3.20;;;;;;;;;;5117504;27;20055;-91
2023/07/17 03:15:29;;;;;;;3.40;2.70;;;;;;;;;;5136779;27;20518;-89
2023/07/17 03:17:55;;;;;;;3.85;3.05;;;;;;;;;;5118129;27;20027;-90
2023/07/17 03:20:20;;;;;;;5.55;3.95;;;;;;;;;;5140198;27;20021;-91
2023/07/17 03:22:46;;;;;;;6.93;3.70;;;;;;;;;;5116178;27;20034;-91
2023/07/17 03:25:11;;;;;;;3.13;2.72;;;;;;;;;;5118704;27;20083;-91
2023/07/17 03:27:37;;;;;;;5.03;3.55;;;;;;;;;;5116284;27;20019;-90
2023/07/17 03:30:04;;;;;;;4.63;3.33;;;;;;;;;;5117993;27;20107;-91
2023/07/17 03:32:33;;;;;;;4.18;3.00;;;;;;;;;;5119670;27;20041;-91
2023/07/17 03:34:59;;;;;;;4.18;3.13;;;;;;;;;;5137451;27;20746;-92
2023/07/17 03:37:25;;;;;;;3.97;3.03;;;;;;;;;;5118207;27;20023;-93
2023/07/17 03:39:50;;;;;;;5.72;2.85;;;;;;;;;;5119442;27;20031;-91
2023/07/17 03:42:16;;;;;;;4.88;3.53;;;;;;;;;;5137096;27;20117;-90
2023/07/17 03:44:41;;;;;;;7.53;3.28;;;;;;;;;;5136028;27;20042;-88
2023/07/17 03:47:07;;;;;;;3.40;3.00;;;;;;;;;;5119554;27;20023;-87
2023/07/17 03:49:32;;;;;;;3.85;3.08;;;;;;;;;;5118939;27;20054;-88
2023/07/17 03:51:58;;;;;;;6.00;3.38;;;;;;;;;;5118165;27;20026;-89
2023/07/17 03:54:24;;;;;;;5.72;3.55;;;;;;;;;;5115966;27;20023;-90
2023/07/17 03:56:50;;;;;;;3.97;2.80;;;;;;;;;;5113083;27;20107;-89
2023/07/17 03:59:15;;;;;;;3.35;3.05;;;;;;;;;;5134426;27;20027;-87
2023/07/17 04:01:41;;;;;;;4.10;2.85;;;;;;;;;;5134000;27;20517;-87
2023/07/17 04:04:06;;;;;;;4.63;3.38;;;;;;;;;;5134126;27;20019;-88
2023/07/17 04:06:32;;;;;;;3.78;2.72;;;;;;;;;;5114399;27;20018;-88
2023/07/17 04:09:00;;;;;;;4.53;3.10;;;;;;;;;;5126809;27;20153;-89
2023/07/17 04:11:25;;;;;;;4.95;3.90;;;;;;;;;;5127193;27;20115;-87
2023/07/17 04:13:52;;;;;;;3.63;3.00;;;;;;;;;;5114076;27;20122;-87
2023/07/17 04:16:20;;;;;;;4.30;3.55;;;;;;;;;;5137320;27;20027;-88
2023/07/17 04:18:46;;;;;;;4.50;3.28;;;;;;;;;;5134130;27;20046;-87
2023/07/17 04:21:11;;;;;;;5.88;4.43;;;;;;;;;;5117482;27;20039;-88
2023/07/17 04:23:37;;;;;;;5.45;3.75;;;;;;;;;;5119485;27;20066;-85
2023/07/17 04:26:02;;;;;;;3.97;3.10;;;;;;;;;;5118585;27;20027;-88
2023/07/17 04:28:28;;;;;;;3.60;2.35;;;;;;;;;;5133865;27;20023;-87
2023/07/17 04:30:53;;;;;;;5.60;4.28;;;;;;;;;;5135229;27;20027;-87
2023/07/17 04:33:19;;;;;;;9.07;4.05;;;;;;;;;;5134616;27;20375;-89
2023/07/17 04:35:47;;;;;;;7.43;3.35;;;;;;;;;;5139131;27;20109;-88
2023/07/17 04:38:15;;;;;;;4.05;3.10;;;;;;;;;;5133202;27;20023;-84
2023/07/17 04:41:07;;;;;;;4.03;3.00;;;;;;;;;;5133972;27;20023;-89
2023/07/17 04:43:33;;;;;;;3.60;2.80;;;;;;;;;;5132883;27;20034;-84
2023/07/17 04:45:58;;;;;;;3.33;2.53;;;;;;;;;;5115696;27;20076;-85
2023/07/17 04:48:36;;;;;;;3.75;2.40;;;;;;;;;;5115379;27;20562;-88
2023/07/17 04:51:04;;;;;;;4.43;2.78;;;;;;;;;;5115254;27;20027;-87
2023/07/17 04:53:30;;;;;;;3.13;2.20;;;;;;;;;;5117215;27;20037;-85
2023/07/17 04:55:55;;;;;;;4.05;2.90;;;;;;;;;;5133574;27;20086;-85
2023/07/17 04:58:20;;;;;;;3.47;2.50;;;;;;;;;;5119269;27;20030;-86
2023/07/17 05:00:47;;;;;;;3.08;2.58;;;;;;;;;;5131458;27;20079;-87
2023/07/17 05:03:15;;;;;;;4.25;2.67;;;;;;;;;;5134031;27;20030;-88
2023/07/17 05:05:46;;;;;;;3.70;3.10;;;;;;;;;;5110419;27;20034;-87
2023/07/17 05:08:11;;;;;;;3.38;2.80;;;;;;;;;;5132785;27;20043;-84
2023/07/17 05:10:37;;;;;;;6.75;3.13;;;;;;;;;;5129407;27;20027;-87
2023/07/17 05:13:03;;;;;;;4.15;3.00;;;;;;;;;;5131501;27;20038;-85
2023/07/17 05:15:28;;;;;;;4.80;2.53;;;;;;;;;;5130167;27;20031;-84
2023/07/17 05:17:53;;;;;;;7.72;2.47;;;;;;;;;;5131349;27;20463;-87
2023/07/17 05:20:19;;;;;;;5.50;3.20;;;;;;;;;;5113191;28;20030;-86
2023/07/17 05:22:44;;;;;;;3.05;2.55;;;;;;;;;;5130007;28;20015;-87
2023/07/17 05:25:10;;;;;;;3.72;2.65;;;;;;;;;;5130287;28;20063;-84
2023/07/17 05:27:35;;;;;;;5.10;3.53;;;;;;;;;;5129952;28;20019;-89
2023/07/17 05:30:01;;;;;;;4.18;3.47;;;;;;;;;;5109807;28;20529;-88
2023/07/17 05:32:27;;;;;;;3.70;3.20;;;;;;;;;;5131184;28;20015;-88
2023/07/17 05:34:53;;;;;;;3.55;2.75;;;;;;;;;;5132282;28;20031;-91
2023/07/17 05:37:20;;;;;;;4.57;3.15;;;;;;;;;;5112693;28;20023;-84
2023/07/17 05:39:45;;;;;;;3.15;2.45;;;;;;;;;;5126524;28;20031;-89
2023/07/17 05:42:11;;;;;;;3.28;2.53;;;;;;;;;;5130547;27;20704;-85
2023/07/17 05:44:36;;;;;;;6.05;2.70;;;;;;;;;;5131322;28;20035;-87
2023/07/17 05:47:02;;;;;;;3.67;2.90;;;;;;;;;;5130165;27;20080;-81
2023/07/17 05:49:28;;;;;;;4.50;3.03;;;;;;;;;;5130084;28;20035;-85
2023/07/17 05:51:53;;;;;;;4.50;3.22;;;;;;;;;;5132768;28;20038;-88
2023/07/17 05:54:19;;;;;;;4.15;3.20;;;;;;;;;;5129883;28;20062;-89
2023/07/17 05:56:44;;;;;;;3.65;2.92;;;;;;;;;;5108586;27;20031;-89
2023/07/17 05:59:10;;;;;;;4.50;3.38;;;;;;;;;;5113052;28;20111;-90
2023/07/17 06:01:35;;;;;;;3.70;2.65;;;;;;;;;;5113706;28;20031;-88
2023/07/17 06:04:00;;;;;;;5.35;2.97;;;;;;;;;;5132184;28;20055;-89
2023/07/17 06:06:26;;;;;;;3.55;2.92;;;;;;;;;;5132013;28;20495;-89
2023/07/17 06:08:51;;;;;;;5.47;3.13;;;;;;;;;;5130679;28;20081;-87
2023/07/17 06:11:17;;;;;;;6.25;3.88;;;;;;;;;;5130314;28;20023;-87
2023/07/17 06:13:42;;;;;;;3.40;2.60;;;;;;;;;;5112146;28;20114;-85
2023/07/17 06:16:08;;;;;;;3.78;2.80;;;;;;;;;;5108881;28;20047;-87
2023/07/17 06:18:33;;;;;;;6.07;2.75;;;;;;;;;;5113763;28;20382;-92
2023/07/17 06:20:59;;;;;;;2.83;2.13;;;;;;;;;;5115363;27;20461;-88
2023/07/17 06:23:24;;;;;;;3.85;2.97;;;;;;;;;;5134218;27;20019;-88
2023/07/17 06:25:50;;;;;;;3.35;2.35;;;;;;;;;;5131579;27;20410;-86
2023/07/17 06:28:15;;;;;;;3.90;2.85;;;;;;;;;;5133759;27;20023;-87
2023/07/17 06:30:44;;;;;;;4.05;2.92;;;;;;;;;;5117143;27;20803;-86
2023/07/17 06:33:10;;;;;;;4.38;3.00;;;;;;;;;;5136006;27;20095;-90
2023/07/17 06:35:35;;;;;;;5.18;3.08;;;;;;;;;;5136152;27;20491;-89
2023/07/17 06:38:00;;;;;;;2.58;1.98;;;;;;;;;;5135675;27;20031;-91
2023/07/17 06:40:26;;;;;;;4.07;3.25;;;;;;;;;;5133228;27;20019;-87
2023/07/17 06:42:52;;;;;;;3.92;2.85;;;;;;;;;;5134260;27;20054;-89
2023/07/17 06:45:18;;;;;;;4.75;3.13;;;;;;;;;;5132422;27;20027;-87
2023/07/17 06:47:43;;;;;;;2.97;2.15;;;;;;;;;;5113133;27;20038;-87
2023/07/17 06:50:09;;;;;;;6.03;3.10;;;;;;;;;;5133990;27;20034;-87
2023/07/17 06:52:37;;;;;;;5.72;2.75;;;;;;;;;;5130417;27;20448;-88
2023/07/17 06:55:03;;;;;;;5.18;3.00;;;;;;;;;;5133693;27;20107;-89
2023/07/17 06:57:29;;;;;;;2.78;2.05;;;;;;;;;;5114859;27;20041;-87
2023/07/17 06:59:55;;;;;;;4.47;3.35;;;;;;;;;;5133890;27;20393;-87
2023/07/17 07:02:20;;;;;;;4.45;2.85;;;;;;;;;;5133928;27;20023;-86
2023/07/17 07:04:45;;;;;;;2.88;2.45;;;;;;;;;;5132701;27;20027;-84
2023/07/17 07:07:11;;;;;;;4.07;3.67;;;;;;;;;;5128915;27;20500;-85
2023/07/17 07:09:36;;;;;;;3.92;2.15;;;;;;;;;;5131392;27;20034;-82
2023/07/17 07:12:02;;;;;;;2.75;2.15;;;;;;;;;;5123416;27;20061;-85
2023/07/17 07:14:27;;;;;;;9.63;3.20;;;;;;;;;;5132428;27;20062;-86
2023/07/17 07:16:53;;;;;;;4.25;2.88;;;;;;;;;;5129558;27;20015;-85
2023/07/17 07:19:18;;;;;;;2.78;1.98;;;;;;;;;;5131876;27;20026;-85
2023/07/17 07:21:44;;;;;;;5.38;3.30;;;;;;;;;;5132234;27;20075;-86
2023/07/17 07:24:09;;;;;;;2.97;2.35;;;;;;;;;;5127913;27;20024;-86
2023/07/17 07:26:36;;;;;;;5.20;2.58;;;;;;;;;;5133658;27;20030;-88
2023/07/17 07:29:01;;;;;;;4.82;3.63;;;;;;;;;;5131597;27;20023;-84
2023/07/17 07:31:27;;;;;;;5.97;3.45;;;;;;;;;;5133454;27;20029;-85
2023/07/17 07:33:52;;;;;;;5.10;3.17;;;;;;;;;;5133300;27;20023;-86
2023/07/17 07:36:18;;;;;;;4.57;3.17;;;;;;;;;;5131118;27;20024;-85
2023/07/17 07:38:43;;;;;;;3.05;2.50;;;;;;;;;;5124221;27;20055;-85
2023/07/17 07:41:09;;;;;;;4.22;3.05;;;;;;;;;;5129087;27;20022;-84
2023/07/17 07:43:34;;;;;;;4.22;3.40;;;;;;;;;;5112828;27;20041;-85
2023/07/17 07:45:59;;;;;;;4.95;3.38;;;;;;;;;;5107566;27;20114;-85
2023/07/17 07:48:25;;;;;;;5.03;3.60;;;;;;;;;;5114476;27;20057;-82
2023/07/17 07:50:50;;;;;;;6.07;3.95;;;;;;;;;;5127807;27;20378;-82
2023/07/17 07:53:16;;;;;;;7.45;3.75;;;;;;;;;;5136779;27;20453;-81
2023/07/17 07:55:41;;;;;;;4.38;3.58;;;;;;;;;;5131951;27;20133;-83
2023/07/17 07:58:07;;;;;;;5.75;3.60;;;;;;;;;;5132786;27;20031;-84
2023/07/17 08:00:35;;;;;;;4.88;3.03;;;;;;;;;;5125560;27;20023;-87
2023/07/17 08:03:00;;;;;;;3.25;2.60;;;;;;;;;;5129142;27;20030;-87
2023/07/17 08:05:26;;;;;;;4.57;3.13;;;;;;;;;;5132058;27;20112;-84
2023/07/17 08:07:51;;;;;;;5.18;3.13;;;;;;;;;;5132619;27;20113;-87
2023/07/17 08:10:18;;;;;;;7.50;3.38;;;;;;;;;;5113836;27;20543;-89
2023/07/17 08:12:43;;;;;;;4.95;3.13;;;;;;;;;;5108061;27;20518;-84
2023/07/17 08:15:09;;;;;;;4.38;3.47;;;;;;;;;;5130503;27;20106;-83
2023/07/17 08:17:35;;;;;;;4.00;2.70;;;;;;;;;;5132535;27;20454;-84
2023/07/17 08:20:00;;;;;;;11.20;4.15;;;;;;;;;;5131359;27;20038;-83
2023/07/17 08:22:26;;;;;;;4.32;3.28;;;;;;;;;;5109951;27;20109;-81
2023/07/17 08:24:51;;;;;;;4.20;3.28;;;;;;;;;;5129065;27;20023;-84
2023/07/17 08:27:17;;;;;;;4.72;3.50;;;;;;;;;;5130282;27;20023;-89
2023/07/17 08:29:42;;;;;;;4.57;3.40;;;;;;;;;;5131467;27;20027;-86
2023/07/17 08:32:10;;;;;;;3.95;3.35;;;;;;;;;;5105115;27;20128;-89
2023/07/17 08:34:35;;;;;;;5.03;3.90;;;;;;;;;;5127189;27;20503;-86
2023/07/17 08:37:01;;;;;;;4.13;3.42;;;;;;;;;;5131819;27;20055;-86
2023/07/17 08:39:26;;;;;;;5.75;3.60;;;;;;;;;;5114304;27;20019;-88
2023/07/17 08:41:53;;;;;;;4.15;3.08;;;;;;;;;;5128857;27;20056;-86
2023/07/17 08:44:19;;;;;;;6.50;4.43;;;;;;;;;;5131020;27;20577;-88
2023/07/17 08:46:47;;;;;;;5.20;3.88;;;;;;;;;;5131941;27;20084;-86
2023/07/17 08:49:16;;;;;;;7.15;4.63;;;;;;;;;;5110781;27;20083;-87
2023/07/17 08:51:42;;;;;;;4.60;2.85;;;;;;;;;;5131835;27;20051;-88
2023/07/17 08:54:07;;;;;;;4.05;2.90;;;;;;;;;;5129061;27;20059;-86
2023/07/17 08:56:34;;;;;;;4.32;3.13;;;;;;;;;;5131624;27;20027;-85
2023/07/17 08:59:01;;;;;;;4.80;3.30;;;;;;;;;;5112517;27;20023;-88
2023/07/17 09:01:27;;;;;;;4.32;3.05;;;;;;;;;;5132047;27;20076;-86
2023/07/17 09:03:53;;;;;;;3.80;3.10;;;;;;;;;;5115507;27;20027;-88
2023/07/17 09:06:24;;;;;;;3.97;2.80;;;;;;;;;;5135578;27;20027;-88
2023/07/17 09:08:50;;;;;;;4.82;2.80;;;;;;;;;;5129346;27;20034;-85
2023/07/17 09:11:16;;;;;;;4.80;3.17;;;;;;;;;;5125252;27;20015;-89
2023/07/17 09:13:44;;;;;;;4.28;2.92;;;;;;;;;;5127919;27;20039;-85
2023/07/17 09:16:20;;;;;;;3.50;2.55;;;;;;;;;;5125413;27;20034;-86
2023/07/17 09:18:47;;;;;;;3.42;2.30;;;;;;;;;;5129829;27;20027;-87
2023/07/17 09:21:14;;;;;;;5.80;3.53;;;;;;;;;;5120637;27;20050;-84
2023/07/17 09:23:43;;;;;;;4.47;2.97;;;;;;;;;;5129385;28;20065;-86
2023/07/17 09:26:08;;;;;;;6.95;3.45;;;;;;;;;;5106684;28;20024;-86
2023/07/17 09:28:37;;;;;;;4.53;3.03;;;;;;;;;;5130007;28;20030;-85
2023/07/17 09:31:03;;;;;;;4.13;2.60;;;;;;;;;;5129013;28;20046;-86
2023/07/17 09:33:36;;;;;;;3.78;2.75;;;;;;;;;;5132719;28;20031;-89
2023/07/17 09:36:01;;;;;;;5.47;2.55;;;;;;;;;;5113159;28;20428;-87
2023/07/17 09:38:27;;;;;;;3.00;2.10;;;;;;;;;;5109409;28;20024;-87
2023/07/17 09:40:52;;;;;;;5.78;2.80;;;;;;;;;;5130319;27;20052;-88
2023/07/17 09:43:30;;;;;;;3.63;2.67;;;;;;;;;;5128643;28;20043;-89
2023/07/17 09:45:59;;;;;;;5.35;3.20;;;;;;;;;;5131566;28;20056;-88
2023/07/17 09:48:27;;;;;;;3.25;2.67;;;;;;;;;;5127917;28;20046;-86
2023/07/17 09:50:56;;;;;;;4.45;3.13;;;;;;;;;;5112411;28;20549;-86
2023/07/17 09:53:22;;;;;;;4.15;2.60;;;;;;;;;;5131311;27;20030;-85
2023/07/17 09:55:50;;;;;;;4.25;2.58;;;;;;;;;;5133588;27;20047;-86
2023/07/17 09:58:17;;;;;;;4.25;2.67;;;;;;;;;;5118827;27;20080;-84
2023/07/17 10:00:43;;;;;;;3.35;2.35;;;;;;;;;;5136081;27;20027;-90
2023/07/17 10:03:17;;;;;;;3.92;2.15;;;;;;;;;;5136215;27;20034;-89
2023/07/17 10:05:43;;;;;;;2.78;1.92;;;;;;;;;;5122088;27;20027;-89
2023/07/17 10:08:10;;;;;;;3.60;1.90;;;;;;;;;;5139594;27;20023;-89
2023/07/17 10:10:37;;;;;;;6.43;2.78;;;;;;;;;;5139139;27;20030;-85
2023/07/17 10:13:05;;;;;;;6.60;2.25;;;;;;;;;;5143681;27;20478;-86
2023/07/17 10:15:31;;;;;;;2.78;2.08;;;;;;;;;;5137853;27;20155;-86
2023/07/17 10:17:58;;;;;;;3.17;2.03;;;;;;;;;;5134099;27;20113;-87
2023/07/17 10:20:25;;;;;;;2.38;1.98;;;;;;;;;;5135663;27;20035;-87
2023/07/17 10:22:51;;;;;;;3.38;2.20;;;;;;;;;;5119876;27;20390;-87
2023/07/17 10:25:19;;;;;;;2.50;1.77;;;;;;;;;;5136941;27;20026;-85
2023/07/17 10:27:52;;;;;;;2.67;2.00;;;;;;;;;;5116198;27;20027;-85
2023/07/17 10:30:22;;;;;;;2.33;1.58;;;;;;;;;;5128564;27;20129;-85
2023/07/17 10:32:49;;;;;;;;;;;;;;;;;;5111914;27;20019;-85
2023/07/17 10:35:19;;;;;;;3.08;2.40;;;;;;;;;;5116044;27;19915;-85
2023/07/17 10:37:45;;;;;;;5.97;2.47;;;;;;;;;;5132926;27;20080;-88
2023/07/17 10:40:29;;;;;;;4.22;2.38;;;;;;;;;;5127092;27;20023;-88
2023/07/17 10:43:16;;;;;;;4.28;2.65;;;;;;;;;;5132577;27;20054;-91
2023/07/17 10:45:43;;;;;;;2.90;2.22;;;;;;;;;;5114234;27;20027;-85
2023/07/17 10:48:08;;;;;;;3.10;2.30;;;;;;;;;;5132214;27;20062;-85
2023/07/17 10:50:35;;;;;;;4.60;2.72;;;;;;;;;;5130836;27;20155;-85
2023/07/17 10:53:09;;;;;;;5.53;2.65;;;;;;;;;;5139181;27;20072;-88
2023/07/17 10:55:35;;;;;;;2.95;2.10;;;;;;;;;;5130487;27;20079;-85
2023/07/17 10:58:01;;;;;;;2.75;2.15;;;;;;;;;;5115704;27;20628;-88
2023/07/17 11:00:49;;;;;;;6.47;2.83;;;;;;;;;;5138098;27;20030;-91
2023/07/17 11:03:16;;;;;;;2.70;2.20;;;;;;;;;;5118332;27;20028;-86
2023/07/17 11:05:44;;;;;;;3.63;2.55;;;;;;;;;;5135207;27;20019;-87
2023/07/17 11:08:13;;;;;;;3.25;2.38;;;;;;;;;;5139037;27;20023;-88
2023/07/17 11:10:41;;;;;;;3.42;2.42;;;;;;;;;;5114805;27;20023;-85
2023/07/17 11:13:07;;;;;;;3.53;2.05;;;;;;;;;;5136365;27;20081;-86
2023/07/17 11:15:34;;;;;;;3.22;2.67;;;;;;;;;;5116854;27;20145;-92
2023/07/17 11:18:04;;;;;;;3.85;2.75;;;;;;;;;;5134430;27;20391;-90
2023/07/17 11:20:31;;;;;;;3.75;2.58;;;;;;;;;;5116839;27;20027;-89
2023/07/17 11:22:58;;;;;;;5.50;3.10;;;;;;;;;;5114048;27;20033;-87
2023/07/17 11:25:31;;;;;;;4.70;3.15;;;;;;;;;;5132784;27;20102;-86
2023/07/17 11:27:59;;;;;;;4.28;3.00;;;;;;;;;;5129670;27;20019;-87
2023/07/17 11:30:34;;;;;;;3.30;2.42;;;;;;;;;;5129096;27;20031;-86
2023/07/17 11:33:07;;;;;;;3.47;2.50;;;;;;;;;;5127733;27;20034;-87
2023/07/17 11:35:42;;;;;;;3.25;2.25;;;;;;;;;;5127203;27;20030;-88
2023/07/17 11:38:10;;;;;;;2.60;2.15;;;;;;;;;;5132267;27;20374;-84
2023/07/17 11:40:56;;;;;;;3.15;2.10;;;;;;;;;;5133011;27;20033;-88
2023/07/17 11:43:25;;;;;;;2.60;2.03;;;;;;;;;;5131975;27;20047;-86
2023/07/17 11:45:52;;;;;;;;;;;;;;;;;;5111269;27;20141;-87
2023/07/17 11:48:18;;;;;;;3.40;2.22;;;;;;;;;;5124314;27;20274;-87
2023/07/17 11:50:44;;;;;;;3.35;2.70;;;;;;;;;;5114026;27;20019;-90
2023/07/17 11:53:13;;;;;;;3.47;1.90;;;;;;;;;;5130453;27;20045;-89
2023/07/17 11:55:40;;;;;;;2.80;1.92;;;;;;;;;;5133207;27;20027;-92
2023/07/17 11:58:35;;;;;;;2.63;1.83;;;;;;;;;;5128868;27;20092;-88
2023/07/17 12:01:01;;;;;;;3.03;1.88;;;;;;;;;;5110040;27;20421;-89
2023/07/17 12:03:26;;;;;;;2.42;1.67;;;;;;;;;;5132776;27;20133;-90
2023/07/17 12:05:52;;;;;;;1.90;1.50;;;;;;;;;;5130541;27;20412;-88
2023/07/17 12:08:17;;;;;;;2.33;1.63;;;;;;;;;;5130594;27;20474;-85
2023/07/17 12:10:43;;;;;;;2.58;1.92;;;;;;;;;;5113796;27;20385;-87
2023/07/17 12:13:08;;;;;;;3.75;2.20;;;;;;;;;;5128103;27;20084;-86
2023/07/17 12:15:35;;;;;;;4.07;2.33;;;;;;;;;;5131344;27;20023;-87
2023/07/17 12:18:00;;;;;;;1.90;1.65;;;;;;;;;;5130513;27;20059;-85
2023/07/17 12:20:27;;;;;;;2.55;1.65;;;;;;;;;;5132598;27;20065;-85
2023/07/17 12:22:54;;;;;;;3.20;2.20;;;;;;;;;;5132270;27;20030;-85
2023/07/17 12:25:20;;;;;;;2.33;1.70;;;;;;;;;;5130572;27;20409;-86
2023/07/17 12:27:46;;;;;;;4.85;1.90;;;;;;;;;;5130244;27;20023;-88
2023/07/17 12:30:13;;;;;;;1.85;1.33;;;;;;;;;;5127004;27;20034;-89
2023/07/17 12:32:40;;;;;;;2.90;2.13;;;;;;;;;;5125287;27;20382;-88
2023/07/17 12:35:06;;;;;;;1.83;1.50;;;;;;;;;;5131743;27;20546;-91
2023/07/17 12:37:33;;;;;;;4.45;2.63;;;;;;;;;;5132779;27;20023;-86
2023/07/17 12:39:58;;;;;;;2.33;1.73;;;;;;;;;;5129211;27;20058;-84
2023/07/17 12:42:24;;;;;;;3.00;1.58;;;;;;;;;;5131063;27;20448;-83
2023/07/17 12:44:50;;;;;;;2.47;1.65;;;;;;;;;;5133826;27;20079;-86
2023/07/17 12:47:16;;;;;;;2.63;1.65;;;;;;;;;;5132135;27;20034;-85
2023/07/17 12:49:41;;;;;;;1.38;1.05;;;;;;;;;;5131179;27;20019;-86
2023/07/17 12:52:07;;;;;;;3.03;1.30;;;;;;;;;;5128507;27;20439;-86
2023/07/17 12:54:32;;;;;;;2.03;1.65;;;;;;;;;;5130176;27;20490;-86
2023/07/17 12:56:58;;;;;;;1.33;1.20;;;;;;;;;;5126708;27;20387;-85
2023/07/17 12:59:23;;;;;;;2.40;1.70;;;;;;;;;;5126046;27;20023;-82
2023/07/17 13:01:53;;;;;;;1.83;1.15;;;;;;;;;;5128239;27;20027;-85
2023/07/17 13:04:19;;;;;;;1.88;1.45;;;;;;;;;;5124771;27;20471;-82
2023/07/17 13:06:44;;;;;;;2.97;1.58;;;;;;;;;;5126584;27;20027;-84
2023/07/17 13:09:09;;;;;;;1.90;1.30;;;;;;;;;;5128879;27;20023;-83
2023/07/17 13:11:35;;;;;;;2.00;1.60;;;;;;;;;;5130125;27;20027;-86
2023/07/17 13:14:05;;;;;;;4.70;1.73;;;;;;;;;;5130183;27;20031;-85
2023/07/17 13:16:32;;;;;;;3.13;2.28;;;;;;;;;;5130479;27;20450;-88
2023/07/17 13:18:57;;;;;;;2.65;1.60;;;;;;;;;;5130817;27;20031;-83
2023/07/17 13:21:23;;;;;;;2.42;1.55;;;;;;;;;;5131250;27;20111;-86
2023/07/17 13:23:49;;;;;;;2.65;1.58;;;;;;;;;;5131429;28;20043;-85
2023/07/17 13:26:17;;;;;;;1.85;1.48;;;;;;;;;;5130346;28;20076;-85
2023/07/17 13:28:42;;;;;;;1.88;1.30;;;;;;;;;;5134366;27;20027;-83
2023/07/17 13:31:08;;;;;;;3.05;2.05;;;;;;;;;;5138724;27;20034;-85
2023/07/17 13:33:33;;;;;;;2.35;1.65;;;;;;;;;;5135013;27;20354;-85
2023/07/17 13:35:59;;;;;;;1.73;1.20;;;;;;;;;;5138270;27;20035;-86
2023/07/17 13:38:24;;;;;;;2.72;1.92;;;;;;;;;;5139024;27;20390;-85
2023/07/17 13:40:50;;;;;;;2.55;1.92;;;;;;;;;;5139215;27;20110;-87
2023/07/17 13:43:15;;;;;;;2.28;1.65;;;;;;;;;;5130305;27;20081;-84
2023/07/17 13:45:41;;;;;;;4.28;2.15;;;;;;;;;;5138399;27;20042;-83
2023/07/17 13:48:06;;;;;;;2.72;1.75;;;;;;;;;;5113830;28;20031;-85
2023/07/17 13:50:32;;;;;;;2.45;1.60;;;;;;;;;;5137377;27;20023;-83
2023/07/17 13:52:58;;;;;;;3.78;1.98;;;;;;;;;;5119601;27;20475;-85
2023/07/17 13:55:23;;;;;;;3.00;1.88;;;;;;;;;;5138567;27;20497;-86
2023/07/17 13:57:49;;;;;;;2.10;1.90;;;;;;;;;;5138204;27;20031;-85
2023/07/17 14:00:14;;;;;;;1.98;1.42;;;;;;;;;;5132240;27;20475;-87
2023/07/17 14:02:40;;;;;;;4.03;2.00;;;;;;;;;;5135089;27;20473;-86
2023/07/17 14:05:06;;;;;;;3.05;2.05;;;;;;;;;;5119788;27;20034;-86
2023/07/17 14:07:31;;;;;;;3.53;2.00;;;;;;;;;;5150550;27;20348;-85
2023/07/17 14:09:56;;;;;;;1.98;1.38;;;;;;;;;;5138169;27;20094;-85
2023/07/17 14:12:22;;;;;;;2.13;1.63;;;;;;;;;;5137780;27;20434;-85
2023/07/17 14:14:47;;;;;;;2.38;1.80;;;;;;;;;;5136861;27;20088;-85
2023/07/17 14:17:13;;;;;;;3.53;2.15;;;;;;;;;;5135643;27;20023;-87
2023/07/17 14:19:39;;;;;;;3.00;1.90;;;;;;;;;;5137300;27;20023;-87
2023/07/17 14:22:05;;;;;;;2.20;1.60;;;;;;;;;;5138020;27;20367;-86
2023/07/17 14:24:30;;;;;;;2.40;1.65;;;;;;;;;;5134171;27;20023;-85
2023/07/17 14:26:56;;;;;;;2.55;1.88;;;;;;;;;;5137068;27;20027;-84
2023/07/17 14:29:21;;;;;;;2.70;1.90;;;;;;;;;;5137530;27;20027;-86
2023/07/17 14:31:47;;;;;;;3.10;2.47;;;;;;;;;;5118619;27;20106;-87
2023/07/17 14:34:12;;;;;;;2.85;2.10;;;;;;;;;;5135739;27;20112;-86
2023/07/17 14:36:38;;;;;;;2.20;1.73;;;;;;;;;;5137638;27;20034;-89
2023/07/17 14:39:03;;;;;;;4.07;2.10;;;;;;;;;;5137869;27;20031;-87